Time;durP1;ratioP1;P1;durP2;ratioP2;P2;SDS_P1;SDS_P2;PMS_P1;PMS_P2;Temp;Humidity;BMP_temperature;BMP_pressure;BME280_temperature;BME280_humidity;BME280_pressure;Samples;Min_cycle;Max_cycle;Signal;HPM_P1;HPM_P2
2022/07/02 00:00:47;;;;;;;10.10;8.80;;;;;;;19.43;90.97;97028.61;106921;1284;35274;-82
2022/07/02 00:03:29;;;;;;;9.60;8.60;;;;;;;19.40;91.52;97018.15;106571;1284;34843;-82
2022/07/02 00:06:02;;;;;;;8.80;7.90;;;;;;;19.27;91.31;97018.70;106863;1284;58465;-82
2022/07/02 00:08:40;;;;;;;10.90;9.50;;;;;;;19.18;91.87;97007.52;107044;1284;37317;-82
2022/07/02 00:11:17;;;;;;;12.30;9.00;;;;;;;19.08;91.78;96996.96;106824;1284;128990;-80
2022/07/02 00:13:51;;;;;;;9.80;8.80;;;;;;;19.00;91.90;97003.35;106757;1283;115832;-82
2022/07/02 00:16:23;;;;;;;8.90;8.00;;;;;;;18.92;91.83;97005.41;106601;1284;73629;-82
2022/07/02 00:18:58;;;;;;;8.70;7.90;;;;;;;18.88;91.81;97000.50;107105;1284;30869;-82
2022/07/02 00:21:29;;;;;;;8.90;8.10;;;;;;;18.86;92.22;97009.67;107019;1284;42508;-81
2022/07/02 00:24:00;;;;;;;9.10;7.90;;;;;;;18.80;92.08;97013.35;106849;1284;38589;-81
2022/07/02 00:26:38;;;;;;;8.20;7.30;;;;;;;18.72;92.42;97001.73;106661;1282;72325;-83
2022/07/02 00:29:17;;;;;;;9.70;8.30;;;;;;;18.61;93.26;97002.08;106729;1284;46300;-82
2022/07/02 00:31:51;;;;;;;9.10;8.20;;;;;;;18.50;93.46;97001.24;106807;1284;37939;-82
2022/07/02 00:34:25;;;;;;;9.80;8.80;;;;;;;18.43;93.56;97002.64;106777;1284;31010;-83
2022/07/02 00:36:58;;;;;;;10.00;8.50;;;;;;;18.36;93.75;96994.83;106851;1284;92330;-80
2022/07/02 00:39:29;;;;;;;11.80;10.60;;;;;;;18.26;94.24;96986.51;106700;1284;101461;-81
2022/07/02 00:42:02;;;;;;;12.60;9.40;;;;;;;18.21;94.65;96990.34;106829;1284;103115;-82
2022/07/02 00:44:34;;;;;;;9.10;8.20;;;;;;;18.17;95.31;96994.23;106582;1284;84037;-81
2022/07/02 00:47:09;;;;;;;9.90;8.80;;;;;;;18.12;95.71;96993.61;106630;1284;118293;-81
2022/07/02 00:49:40;;;;;;;11.80;10.60;;;;;;;18.10;95.77;96993.09;106640;1284;122336;-82
2022/07/02 00:52:14;;;;;;;10.70;9.10;;;;;;;18.09;95.77;96994.95;106662;1284;101090;-82
2022/07/02 00:54:45;;;;;;;14.70;13.10;;;;;;;18.05;95.86;96990.64;106840;1284;89411;-82
2022/07/02 00:57:16;;;;;;;11.80;9.30;;;;;;;17.99;95.59;96987.54;106769;1284;52615;-81
2022/07/02 00:59:47;;;;;;;11.80;9.60;;;;;;;17.95;96.25;96982.61;106645;1284;36373;-81
2022/07/02 01:02:21;;;;;;;13.20;10.90;;;;;;;17.89;96.54;96983.29;106709;1284;68496;-82
2022/07/02 01:04:53;;;;;;;14.10;10.10;;;;;;;17.78;96.89;96975.14;106729;1284;65535;-82
2022/07/02 01:07:25;;;;;;;13.00;10.90;;;;;;;17.71;97.65;96970.42;106693;1284;29314;-81
2022/07/02 01:10:18;;;;;;;11.60;9.90;;;;;;;17.65;98.63;96969.55;106664;1284;49767;-79
2022/07/02 01:12:53;;;;;;;13.40;10.60;;;;;;;17.63;98.90;96971.45;106657;1284;59508;-81
2022/07/02 01:15:26;;;;;;;11.70;10.50;;;;;;;17.63;99.59;96965.98;106699;1283;31051;-82
2022/07/02 01:17:59;;;;;;;11.70;10.50;;;;;;;17.64;99.19;96958.70;106695;1284;32117;-81
2022/07/02 01:20:30;;;;;;;11.20;10.10;;;;;;;17.69;98.54;96956.54;106510;1284;68628;-81
2022/07/02 01:23:01;;;;;;;10.20;9.10;;;;;;;17.73;97.87;96962.20;106587;1284;44615;-81
2022/07/02 01:25:33;;;;;;;11.00;8.90;;;;;;;17.78;97.31;96965.33;106650;1284;31948;-82
2022/07/02 01:28:04;;;;;;;11.00;9.90;;;;;;;17.85;96.95;96965.52;106630;1284;147407;-81
2022/07/02 01:30:36;;;;;;;10.10;9.10;;;;;;;17.88;96.51;96979.95;106804;1284;39649;-81
2022/07/02 01:33:07;;;;;;;9.20;8.20;;;;;;;17.90;96.23;96984.71;106922;1283;40287;-82
2022/07/02 01:35:38;;;;;;;11.10;9.30;;;;;;;17.97;95.99;96977.79;106789;1284;45912;-81
2022/07/02 01:38:09;;;;;;;10.10;8.70;;;;;;;17.98;95.64;96967.71;106615;1284;98462;-81
2022/07/02 01:40:40;;;;;;;10.80;8.40;;;;;;;17.98;95.56;96961.91;106774;1284;36840;-78
2022/07/02 01:43:11;;;;;;;10.20;9.10;;;;;;;17.95;95.43;96966.46;106950;1284;34525;-82
2022/07/02 01:45:45;;;;;;;9.60;8.50;;;;;;;17.91;95.55;96963.81;106582;1284;91291;-82
2022/07/02 01:48:18;;;;;;;10.50;9.40;;;;;;;17.87;95.78;96965.08;106800;1284;40253;-82
2022/07/02 01:50:48;;;;;;;8.60;7.70;;;;;;;17.83;95.59;96961.05;106778;1284;38323;-82
2022/07/02 01:53:19;;;;;;;8.20;7.00;;;;;;;17.79;95.41;96957.88;106483;1284;93280;-82
2022/07/02 01:55:52;;;;;;;8.00;7.20;;;;;;;17.78;95.28;96959.20;106708;1284;82282;-82
2022/07/02 01:58:24;;;;;;;8.70;7.80;;;;;;;17.75;95.21;96967.29;106822;1284;66074;-82
2022/07/02 02:00:55;;;;;;;9.00;8.10;;;;;;;17.74;95.47;96973.92;106805;1281;32271;-82
2022/07/02 02:03:26;;;;;;;9.20;8.20;;;;;;;17.73;95.57;96977.11;106773;1284;71132;-81
2022/07/02 02:05:58;;;;;;;8.90;7.50;;;;;;;17.70;96.01;96982.83;106755;1284;35145;-81
2022/07/02 02:08:29;;;;;;;8.60;7.30;;;;;;;17.72;96.40;96983.64;106642;1283;46498;-82
2022/07/02 02:10:59;;;;;;;8.00;7.20;;;;;;;17.73;96.38;96981.20;106830;1283;75749;-82
2022/07/02 02:13:31;;;;;;;8.80;7.90;;;;;;;17.76;96.16;96982.25;106592;1284;101631;-81
2022/07/02 02:16:04;;;;;;;8.70;7.50;;;;;;;17.83;95.86;96995.08;106517;1284;59704;-82
2022/07/02 02:18:35;;;;;;;8.00;7.20;;;;;;;17.91;95.47;96999.63;106517;1283;36510;-82
2022/07/02 02:21:08;;;;;;;8.00;7.10;;;;;;;18.02;95.34;97000.95;106627;1284;58575;-82
2022/07/02 02:23:39;;;;;;;7.70;6.90;;;;;;;18.15;94.95;97003.79;106616;1284;75761;-82
2022/07/02 02:26:11;;;;;;;9.70;8.20;;;;;;;18.22;94.42;97011.55;106909;1284;30907;-82
2022/07/02 02:28:42;;;;;;;8.20;7.40;;;;;;;18.22;94.21;97019.61;106656;1284;31178;-82
2022/07/02 02:31:13;;;;;;;8.60;7.70;;;;;;;18.22;94.01;97033.42;106851;1282;55763;-82
2022/07/02 02:33:44;;;;;;;9.50;8.30;;;;;;;18.25;93.84;97042.36;106887;1284;54299;-82
2022/07/02 02:36:15;;;;;;;8.30;7.50;;;;;;;18.32;93.69;97042.89;106747;1284;72722;-82
2022/07/02 02:38:47;;;;;;;8.00;7.10;;;;;;;18.47;93.70;97045.44;106495;1284;76384;-82
2022/07/02 02:41:20;;;;;;;8.40;7.40;;;;;;;18.52;93.12;97050.96;106613;1284;87966;-81
2022/07/02 02:43:51;;;;;;;7.50;6.80;;;;;;;18.50;92.83;97060.85;106661;1284;33472;-81
2022/07/02 02:46:22;;;;;;;7.50;6.60;;;;;;;18.38;92.94;97065.53;106539;1284;37589;-82
2022/07/02 02:48:53;;;;;;;7.60;6.80;;;;;;;18.25;93.22;97063.08;106903;1284;49400;-82
2022/07/02 02:51:24;;;;;;;7.30;6.50;;;;;;;18.13;93.45;97066.52;106690;1284;35114;-82
2022/07/02 02:53:55;;;;;;;10.80;8.30;;;;;;;18.03;94.03;97069.45;106566;1284;35309;-81
2022/07/02 02:56:27;;;;;;;10.40;8.10;;;;;;;17.95;94.69;97069.05;106457;1284;45127;-81
2022/07/02 02:58:58;;;;;;;10.20;8.20;;;;;;;17.84;95.20;97062.13;106684;1284;92551;-80
2022/07/02 03:01:29;;;;;;;10.00;8.80;;;;;;;17.79;95.40;97065.01;106634;1284;34207;-81
2022/07/02 03:04:00;;;;;;;10.00;7.80;;;;;;;17.79;95.68;97065.89;106624;1284;41145;-81
2022/07/02 03:06:31;;;;;;;10.50;8.70;;;;;;;17.79;95.78;97069.64;106464;1284;106254;-81
2022/07/02 03:09:02;;;;;;;10.50;9.20;;;;;;;17.78;95.52;97061.02;106765;1284;44883;-81
2022/07/02 03:11:33;;;;;;;10.40;9.30;;;;;;;17.80;95.36;97063.02;106536;1283;84712;-81
2022/07/02 03:14:04;;;;;;;12.20;9.10;;;;;;;17.82;95.18;97063.64;106483;1283;40185;-81
2022/07/02 03:16:35;;;;;;;10.60;9.00;;;;;;;17.81;95.22;97056.80;106519;1284;51817;-81
2022/07/02 03:19:06;;;;;;;10.20;8.80;;;;;;;17.77;95.85;97053.55;106496;1284;35385;-81
2022/07/02 03:21:37;;;;;;;13.50;9.10;;;;;;;17.69;96.20;97054.55;106578;1284;48671;-81
2022/07/02 03:24:09;;;;;;;10.70;8.90;;;;;;;17.65;96.22;97066.05;106790;1284;33097;-82
2022/07/02 03:26:40;;;;;;;10.80;8.80;;;;;;;17.68;96.02;97081.36;106536;1284;103902;-81
2022/07/02 03:29:11;;;;;;;10.40;9.00;;;;;;;17.68;95.66;97099.44;106703;1284;76026;-81
2022/07/02 03:31:42;;;;;;;9.60;7.80;;;;;;;17.73;95.50;97111.99;106806;1284;37178;-82
2022/07/02 03:34:13;;;;;;;10.90;9.70;;;;;;;17.76;95.20;97109.90;106448;1284;78804;-81
2022/07/02 03:36:44;;;;;;;11.20;8.60;;;;;;;17.76;95.09;97109.20;106554;1284;57692;-81
2022/07/02 03:39:15;;;;;;;11.70;9.10;;;;;;;17.71;94.89;97119.34;106604;1284;35975;-81
2022/07/02 03:41:49;;;;;;;12.10;9.10;;;;;;;17.66;94.83;97121.58;106773;1284;37852;-82
2022/07/02 03:44:20;;;;;;;9.70;8.40;;;;;;;17.63;94.95;97128.95;106621;1284;62873;-82
2022/07/02 03:46:51;;;;;;;11.40;9.50;;;;;;;17.58;95.03;97137.98;106942;1283;38994;-82
2022/07/02 03:49:22;;;;;;;10.90;9.60;;;;;;;17.53;95.05;97141.17;106961;1284;29347;-81
2022/07/02 03:51:53;;;;;;;12.00;9.60;;;;;;;17.50;94.90;97143.34;106913;1283;57966;-81
2022/07/02 03:54:24;;;;;;;10.90;9.20;;;;;;;17.41;95.10;97148.71;106485;1284;46827;-81
2022/07/02 03:56:55;;;;;;;10.80;9.20;;;;;;;17.33;95.37;97155.54;106534;1284;31113;-81
2022/07/02 03:59:27;;;;;;;11.60;7.80;;;;;;;17.27;95.60;97160.64;106319;1284;100018;-81
2022/07/02 04:01:59;;;;;;;11.90;9.60;;;;;;;17.18;96.39;97156.19;106699;1284;83057;-81
2022/07/02 04:04:30;;;;;;;9.60;8.40;;;;;;;17.10;96.41;97152.80;106639;1283;37929;-80
2022/07/02 04:07:01;;;;;;;10.40;8.80;;;;;;;17.11;96.46;97148.54;106430;1284;43032;-81
2022/07/02 04:09:34;;;;;;;10.50;7.70;;;;;;;17.13;96.16;97147.10;106736;1284;98790;-81
2022/07/02 04:12:06;;;;;;;10.90;7.90;;;;;;;17.13;96.10;97146.11;106418;1284;133924;-82
2022/07/02 04:14:37;;;;;;;9.20;7.80;;;;;;;17.06;96.25;97138.81;106724;1284;50675;-82
2022/07/02 04:17:09;;;;;;;10.00;7.90;;;;;;;16.97;96.27;97139.41;106661;1284;114525;-82
2022/07/02 04:19:41;;;;;;;8.40;6.30;;;;;;;16.92;96.64;97145.50;106766;1284;33178;-81
2022/07/02 04:22:14;;;;;;;7.50;6.00;;;;;;;16.93;96.66;97147.17;106697;1284;132794;-82
2022/07/02 04:24:45;;;;;;;8.00;6.10;;;;;;;16.95;96.54;97153.71;106790;1284;49584;-82
2022/07/02 04:27:19;;;;;;;6.40;5.30;;;;;;;16.98;96.35;97163.11;106864;1284;46631;-82
2022/07/02 04:29:55;;;;;;;6.30;5.20;;;;;;;17.07;96.17;97172.54;106733;1284;130729;-81
2022/07/02 04:32:26;;;;;;;6.50;5.80;;;;;;;17.17;95.85;97170.42;106772;1284;50175;-80
2022/07/02 04:34:58;;;;;;;5.70;4.80;;;;;;;17.15;95.31;97170.67;106843;1283;35254;-80
2022/07/02 04:37:30;;;;;;;6.10;5.00;;;;;;;17.16;95.13;97171.29;106539;1284;100290;-82
2022/07/02 04:40:01;;;;;;;6.00;4.60;;;;;;;17.27;95.10;97170.05;106632;1284;30471;-76
2022/07/02 04:42:32;;;;;;;6.60;5.10;;;;;;;17.38;94.79;97162.34;106522;1284;34229;-76
2022/07/02 04:45:03;;;;;;;4.60;3.80;;;;;;;17.47;94.31;97161.42;106611;1284;50213;-75
2022/07/02 04:47:34;;;;;;;5.60;3.90;;;;;;;17.52;93.74;97165.80;106446;1284;36747;-76
2022/07/02 04:50:06;;;;;;;6.10;4.10;;;;;;;17.50;93.51;97177.02;106477;1284;50380;-75
2022/07/02 04:52:37;;;;;;;5.00;3.60;;;;;;;17.52;92.93;97184.47;106417;1284;31161;-75
2022/07/02 04:55:09;;;;;;;5.10;4.60;;;;;;;17.32;92.39;97185.16;106418;1284;43245;-76
2022/07/02 04:57:41;;;;;;;3.80;3.40;;;;;;;17.27;92.97;97181.00;106615;1284;43594;-75
2022/07/02 05:00:14;;;;;;;4.70;3.80;;;;;;;17.33;92.93;97175.22;106337;1284;36557;-76
2022/07/02 05:02:45;;;;;;;2.90;2.60;;;;;;;17.38;92.67;97180.49;106410;1283;38518;-76
2022/07/02 05:05:16;;;;;;;4.30;3.40;;;;;;;17.36;92.00;97183.23;106486;1284;44596;-77
2022/07/02 05:07:47;;;;;;;4.50;3.60;;;;;;;17.21;91.83;97190.20;106559;1284;50331;-76
2022/07/02 05:10:17;;;;;;;4.40;2.90;;;;;;;17.06;92.12;97195.66;106524;1284;48136;-76
2022/07/02 05:12:49;;;;;;;4.00;3.10;;;;;;;17.01;92.37;97193.41;106595;1284;29247;-76
2022/07/02 05:15:20;;;;;;;3.80;2.80;;;;;;;16.99;92.53;97199.42;106466;1284;35899;-76
2022/07/02 05:17:52;;;;;;;3.70;2.60;;;;;;;17.02;92.66;97208.45;106585;1284;58303;-76
2022/07/02 05:20:23;;;;;;;2.50;2.20;;;;;;;17.02;92.38;97209.05;106520;1284;33163;-76
2022/07/02 05:22:54;;;;;;;2.50;2.20;;;;;;;17.02;92.30;97206.46;106699;1284;41745;-76
2022/07/02 05:25:25;;;;;;;2.90;2.20;;;;;;;17.01;92.35;97207.62;106622;1284;44656;-76
2022/07/02 05:27:57;;;;;;;2.30;2.10;;;;;;;17.00;92.41;97204.38;106597;1284;44885;-74
2022/07/02 05:30:29;;;;;;;3.50;2.80;;;;;;;17.02;92.40;97207.00;106472;1284;39866;-76
2022/07/02 05:33:00;;;;;;;2.60;2.30;;;;;;;17.02;92.38;97210.00;106352;1284;45908;-78
2022/07/02 05:35:31;;;;;;;2.10;1.90;;;;;;;17.03;92.34;97213.64;106454;1284;34579;-79
2022/07/02 05:38:02;;;;;;;1.80;1.70;;;;;;;17.05;92.14;97210.61;106487;1284;44985;-78
2022/07/02 05:40:33;;;;;;;1.70;1.40;;;;;;;17.06;91.80;97211.27;106609;1283;41699;-78
2022/07/02 05:43:08;;;;;;;1.50;1.40;;;;;;;17.05;91.64;97215.95;106593;1284;39124;-78
2022/07/02 05:45:38;;;;;;;1.70;1.40;;;;;;;17.07;91.56;97224.64;106506;1284;68998;-78
2022/07/02 05:48:10;;;;;;;1.90;1.70;;;;;;;17.05;91.31;97230.98;106632;1284;37038;-78
2022/07/02 05:50:41;;;;;;;2.40;1.80;;;;;;;17.10;91.36;97233.83;106314;1284;44908;-78
2022/07/02 05:53:13;;;;;;;3.90;3.10;;;;;;;17.22;91.18;97235.77;106419;1284;32896;-78
2022/07/02 05:55:47;;;;;;;3.30;1.80;;;;;;;17.34;90.98;97240.53;106040;1284;48453;-78
2022/07/02 05:58:18;;;;;;;2.10;2.00;;;;;;;17.41;90.64;97240.23;106301;1284;34181;-78
2022/07/02 06:00:50;;;;;;;3.40;2.20;;;;;;;17.52;90.52;97238.34;106238;1284;45309;-78
2022/07/02 06:03:21;;;;;;;2.10;1.90;;;;;;;17.69;90.35;97242.17;106164;1284;59868;-78
2022/07/02 06:08:44;;;;;;;2.20;2.00;;;;;;;17.81;89.01;97251.83;106409;1284;44019;-78
2022/07/02 06:11:15;;;;;;;2.10;1.90;;;;;;;17.89;88.80;97257.05;106399;1284;46357;-77
2022/07/02 06:13:47;;;;;;;2.10;1.90;;;;;;;17.89;88.66;97259.80;99656;1282;5051445;-77
2022/07/02 06:16:18;;;;;;;2.30;2.00;;;;;;;17.76;87.79;97254.01;106520;1284;49594;-78
2022/07/02 06:18:49;;;;;;;2.50;2.10;;;;;;;17.61;87.95;97255.02;106559;1284;52048;-78
2022/07/02 06:21:20;;;;;;;3.60;2.50;;;;;;;17.50;88.06;97260.73;106523;1284;47195;-82
2022/07/02 06:23:55;;;;;;;3.50;2.50;;;;;;;17.45;88.38;97270.22;106662;1284;88495;-75
2022/07/02 06:26:26;;;;;;;2.90;2.60;;;;;;;17.34;88.37;97271.08;106822;1284;71587;-75
2022/07/02 06:28:57;;;;;;;3.20;2.90;;;;;;;17.37;88.66;97270.58;106654;1284;32354;-77
2022/07/02 06:31:28;;;;;;;2.90;2.60;;;;;;;17.37;88.67;97269.66;106586;1284;39886;-76
2022/07/02 06:33:59;;;;;;;2.50;2.30;;;;;;;17.35;88.40;97266.34;106575;1284;33455;-76
2022/07/02 06:36:30;;;;;;;3.00;2.80;;;;;;;17.39;88.62;97268.28;106289;1283;37572;-76
2022/07/02 06:39:02;;;;;;;4.30;3.20;;;;;;;17.43;88.87;97269.58;106546;1283;31792;-77
2022/07/02 06:44:23;;;;;;;3.10;2.80;;;;;;;17.47;88.56;97281.06;106635;1284;32415;-76
2022/07/02 06:46:54;;;;;;;3.30;3.00;;;;;;;17.44;88.64;97287.45;106566;1284;43782;-77
2022/07/02 06:49:25;;;;;;;3.40;3.10;;;;;;;17.33;88.83;97295.86;106571;1284;40197;-75
2022/07/02 06:51:56;;;;;;;3.40;3.10;;;;;;;17.27;89.14;97301.15;106392;1284;35404;-76
2022/07/02 06:54:30;;;;;;;3.30;2.90;;;;;;;17.12;89.74;97307.66;106328;1284;37343;-76
2022/07/02 06:57:01;;;;;;;4.00;3.00;;;;;;;16.95;90.12;97316.02;106432;1284;36362;-76
2022/07/02 06:59:32;;;;;;;3.50;3.20;;;;;;;16.89;90.52;97325.00;106317;1284;35097;-76
2022/07/02 07:02:04;;;;;;;3.70;3.30;;;;;;;16.82;90.76;97318.67;106348;1284;30309;-76
2022/07/02 07:04:37;;;;;;;3.60;3.20;;;;;;;16.81;90.86;97318.58;106138;1284;29279;-75
2022/07/02 07:07:11;;;;;;;4.00;3.50;;;;;;;16.84;91.08;97318.85;106344;1284;59690;-74
2022/07/02 07:09:42;;;;;;;3.60;3.30;;;;;;;16.84;91.16;97316.41;106205;1283;38822;-76
2022/07/02 07:12:15;;;;;;;3.10;2.70;;;;;;;16.87;91.37;97318.08;106146;1284;32808;-76
2022/07/02 07:14:47;;;;;;;2.80;2.50;;;;;;;16.95;91.28;97314.16;106256;1283;34252;-76
2022/07/02 07:17:26;;;;;;;3.80;2.80;;;;;;;17.01;90.85;97314.02;106380;1284;51552;-82
2022/07/02 07:19:59;;;;;;;4.70;3.00;;;;;;;16.96;90.57;97317.29;106090;1284;119339;-83
2022/07/02 07:22:34;;;;;;;2.50;2.30;;;;;;;16.99;90.70;97321.19;105571;1284;197324;-84
2022/07/02 07:25:10;;;;;;;2.60;2.40;;;;;;;17.01;90.60;97328.64;105587;1284;2093524;-84
2022/07/02 07:27:42;;;;;;;2.90;2.70;;;;;;;16.99;90.40;97332.69;106768;1284;60654;-83
2022/07/02 07:30:15;;;;;;;3.20;2.90;;;;;;;17.01;90.56;97327.20;106589;1284;155211;-83
2022/07/02 07:32:46;;;;;;;3.10;2.80;;;;;;;16.95;90.59;97338.68;106479;1284;185922;-84
2022/07/02 07:35:19;;;;;;;3.40;2.80;;;;;;;16.84;90.99;97349.95;106720;1284;70815;-83
2022/07/02 07:38:02;;;;;;;2.90;2.60;;;;;;;16.73;91.22;97350.77;105915;1284;182300;-84
2022/07/02 07:40:34;;;;;;;3.10;2.50;;;;;;;16.69;91.53;97353.48;106172;1284;95928;-83
2022/07/02 07:43:05;;;;;;;2.60;2.40;;;;;;;16.67;91.37;97355.17;106268;1284;110704;-83
2022/07/02 07:45:37;;;;;;;2.80;2.20;;;;;;;16.70;91.43;97368.10;106778;1284;36041;-83
2022/07/02 07:48:09;;;;;;;2.60;2.40;;;;;;;16.74;91.16;97365.64;106365;1284;188821;-82
2022/07/02 07:50:43;;;;;;;2.30;2.00;;;;;;;16.79;91.05;97372.90;106678;1284;113958;-83
2022/07/02 07:53:15;;;;;;;4.00;2.90;;;;;;;16.76;90.58;97371.55;106796;1284;36229;-83
2022/07/02 07:55:48;;;;;;;2.60;2.40;;;;;;;16.80;90.59;97378.80;106368;1284;215965;-82
2022/07/02 07:58:21;;;;;;;3.00;2.70;;;;;;;16.86;90.37;97381.46;106927;1284;74954;-82
2022/07/02 08:00:53;;;;;;;3.30;2.40;;;;;;;16.90;89.86;97379.47;106192;1284;160055;-83
2022/07/02 08:03:27;;;;;;;2.60;2.40;;;;;;;16.89;89.78;97382.25;106849;1284;39591;-82
2022/07/02 08:05:59;;;;;;;2.60;2.30;;;;;;;16.96;89.67;97387.31;106604;1284;130372;-83
2022/07/02 08:08:34;;;;;;;2.90;2.60;;;;;;;17.04;89.56;97384.25;106620;1284;123821;-82
2022/07/02 08:11:07;;;;;;;2.30;2.10;;;;;;;17.12;89.40;97385.83;106680;1284;102726;-83
2022/07/02 08:13:38;;;;;;;2.60;2.30;;;;;;;17.16;88.94;97384.67;106376;1283;215750;-82
2022/07/02 08:16:10;;;;;;;2.80;2.30;;;;;;;17.21;88.79;97391.13;106745;1284;40692;-83
2022/07/02 08:18:42;;;;;;;2.30;2.10;;;;;;;17.27;88.72;97393.17;105587;1284;1310937;-83
2022/07/02 08:21:13;;;;;;;2.50;2.30;;;;;;;17.29;88.17;97391.05;106883;1284;34694;-83
2022/07/02 08:23:44;;;;;;;2.80;2.10;;;;;;;17.28;87.68;97390.91;105390;1284;1834745;-83
2022/07/02 08:26:16;;;;;;;2.50;2.30;;;;;;;17.25;87.32;97396.23;106805;1284;140385;-83
2022/07/02 08:28:50;;;;;;;3.20;2.80;;;;;;;17.19;87.47;97402.63;106623;1284;64921;-83
2022/07/02 08:31:22;;;;;;;2.60;2.40;;;;;;;17.26;87.53;97403.92;105171;1284;2358371;-83
2022/07/02 08:33:54;;;;;;;3.10;2.80;;;;;;;17.32;87.24;97409.63;106753;1284;30634;-83
2022/07/02 08:36:27;;;;;;;2.70;2.50;;;;;;;17.29;86.99;97408.14;106699;1284;143326;-83
2022/07/02 08:38:59;;;;;;;3.00;2.70;;;;;;;17.30;86.67;97409.52;106817;1284;44466;-82
2022/07/02 08:41:31;;;;;;;3.70;2.60;;;;;;;17.17;86.70;97414.35;106850;1284;35417;-83
2022/07/02 08:44:06;;;;;;;5.80;2.80;;;;;;;17.14;87.05;97406.73;104830;1284;2582414;-84
2022/07/02 08:46:42;;;;;;;3.40;2.80;;;;;;;17.09;86.98;97409.85;106894;1284;34948;-83
2022/07/02 08:49:15;;;;;;;3.00;2.70;;;;;;;17.11;87.29;97410.73;106313;1284;211432;-83
2022/07/02 08:51:51;;;;;;;2.90;2.60;;;;;;;17.22;87.29;97414.62;106713;1284;167378;-83
2022/07/02 08:54:25;;;;;;;4.40;3.30;;;;;;;17.30;87.35;97418.77;106824;1284;138829;-83
2022/07/02 08:56:59;;;;;;;2.70;2.40;;;;;;;17.32;87.02;97415.05;104758;1284;1745574;-83
2022/07/02 08:59:33;;;;;;;3.80;3.40;;;;;;;17.40;86.66;97414.27;106846;1284;36101;-83
2022/07/02 09:02:08;;;;;;;3.90;3.50;;;;;;;17.42;86.71;97417.44;106599;1284;32403;-75
2022/07/02 09:04:45;;;;;;;4.00;3.60;;;;;;;17.38;86.56;97418.29;106336;1284;31972;-75
2022/07/02 09:07:21;;;;;;;4.10;3.70;;;;;;;17.40;86.38;97416.56;106316;1284;42022;-74
2022/07/02 09:09:55;;;;;;;4.90;4.10;;;;;;;17.44;86.24;97420.66;106380;1284;36300;-73
2022/07/02 09:12:28;;;;;;;5.50;5.00;;;;;;;17.48;86.28;97419.15;106399;1284;41540;-75
2022/07/02 09:15:01;;;;;;;5.20;4.60;;;;;;;17.48;86.07;97421.19;106541;1284;39990;-74
2022/07/02 09:17:36;;;;;;;6.60;5.20;;;;;;;17.47;86.20;97423.07;105701;1284;150150;-77
2022/07/02 09:20:10;;;;;;;6.60;5.40;;;;;;;17.60;86.09;97421.45;106198;1284;64309;-77
2022/07/02 09:22:44;;;;;;;6.00;5.40;;;;;;;17.65;85.65;97425.36;106313;1284;42586;-76
2022/07/02 09:25:21;;;;;;;6.90;6.10;;;;;;;17.61;85.50;97429.41;105870;1284;31960;-76
2022/07/02 09:28:03;;;;;;;8.20;6.60;;;;;;;17.64;85.43;97425.86;106237;1284;34262;-76
2022/07/02 09:30:37;;;;;;;7.50;6.70;;;;;;;17.61;85.17;97427.81;106052;1284;38863;-77
2022/07/02 09:33:30;;;;;;;8.00;7.20;;;;;;;17.55;85.19;97427.02;106316;1284;31286;-76
2022/07/02 09:36:09;;;;;;;7.70;6.90;;;;;;;17.55;85.28;97426.84;106361;1284;32638;-75
2022/07/02 09:38:47;;;;;;;8.80;7.80;;;;;;;17.58;85.07;97418.48;106417;1284;31014;-75
2022/07/02 09:41:21;;;;;;;10.10;9.10;;;;;;;17.57;85.06;97422.26;106522;1284;35418;-74
2022/07/02 09:43:58;;;;;;;12.00;10.50;;;;;;;17.47;85.12;97426.20;106353;1285;36119;-75
2022/07/02 09:46:30;;;;;;;10.10;9.10;;;;;;;17.48;85.33;97430.67;106352;1283;42237;-75
2022/07/02 09:49:14;;;;;;;11.50;10.30;;;;;;;17.57;85.18;97433.67;106157;1284;152645;-75
2022/07/02 09:51:52;;;;;;;12.50;11.20;;;;;;;17.54;85.05;97434.66;106372;1284;74991;-75
2022/07/02 09:54:26;;;;;;;11.90;10.70;;;;;;;17.36;85.19;97439.61;106445;1284;74133;-75
2022/07/02 09:56:59;;;;;;;15.80;14.20;;;;;;;17.37;85.78;97438.46;106276;1284;76198;-76
2022/07/02 09:59:38;;;;;;;21.00;18.80;;;;;;;17.50;85.83;97443.45;106182;1284;69360;-75
2022/07/02 10:02:23;;;;;;;20.40;18.40;;;;;;;17.38;85.23;97451.20;106105;1284;68430;-76
2022/07/02 10:04:56;;;;;;;18.90;17.00;;;;;;;17.27;85.59;97454.29;106382;1284;31335;-76
2022/07/02 10:07:28;;;;;;;20.90;18.90;;;;;;;17.42;85.96;97457.94;106306;1284;34457;-76
2022/07/02 10:10:05;;;;;;;20.90;18.40;;;;;;;17.41;85.46;97457.19;106383;1284;38035;-76
2022/07/02 10:12:41;;;;;;;22.10;19.80;;;;;;;17.35;85.59;97460.83;106338;1284;71342;-75
2022/07/02 10:15:16;;;;;;;23.10;20.60;;;;;;;17.21;85.88;97464.11;106194;1284;59405;-76
2022/07/02 10:17:48;;;;;;;21.20;19.10;;;;;;;17.03;86.29;97461.95;105966;1287;49484;-75
2022/07/02 10:20:21;;;;;;;19.70;17.40;;;;;;;17.07;86.90;97456.73;105930;1284;33886;-75
2022/07/02 10:22:56;;;;;;;20.40;18.30;;;;;;;17.25;86.82;97460.69;106161;1284;33364;-75
2022/07/02 10:25:30;;;;;;;22.30;20.10;;;;;;;17.37;86.49;97460.25;106067;1284;42322;-76
2022/07/02 10:28:03;;;;;;;20.30;18.40;;;;;;;17.44;86.18;97462.45;106099;1284;38451;-76
2022/07/02 10:30:36;;;;;;;22.00;19.80;;;;;;;17.47;85.90;97465.17;106358;1284;39162;-77
2022/07/02 10:33:16;;;;;;;19.50;17.60;;;;;;;17.34;85.86;97468.52;106096;1283;62356;-76
2022/07/02 10:35:50;;;;;;;19.00;17.00;;;;;;;17.26;86.06;97476.72;106179;1284;34596;-75
2022/07/02 10:38:32;;;;;;;20.50;18.40;;;;;;;17.14;86.44;97477.60;106213;1284;36587;-76
2022/07/02 10:41:04;;;;;;;21.20;17.90;;;;;;;16.99;86.93;97481.21;106298;1284;29204;-77
2022/07/02 10:43:38;;;;;;;24.00;20.10;;;;;;;16.86;88.05;97476.70;106113;1284;52117;-77
2022/07/02 10:46:13;;;;;;;20.70;17.60;;;;;;;16.64;88.75;97484.59;106309;1284;34619;-75
2022/07/02 10:48:52;;;;;;;20.50;17.50;;;;;;;16.46;89.46;97483.62;106057;1284;34614;-72
2022/07/02 10:51:26;;;;;;;20.60;18.00;;;;;;;16.33;90.07;97487.79;106238;1284;39572;-73
2022/07/02 10:54:00;;;;;;;20.60;18.40;;;;;;;16.28;90.55;97489.44;106297;1284;32421;-76
2022/07/02 10:56:44;;;;;;;20.20;17.40;;;;;;;16.26;90.92;97492.67;106136;1284;41509;-76
2022/07/02 10:59:27;;;;;;;20.80;17.50;;;;;;;16.25;91.15;97496.11;106412;1284;59689;-76
2022/07/02 11:02:06;;;;;;;21.00;18.70;;;;;;;16.28;91.31;97501.31;106200;1285;46501;-76
2022/07/02 11:04:39;;;;;;;20.20;18.00;;;;;;;16.32;91.55;97499.52;106207;1287;31640;-75
2022/07/02 11:07:14;;;;;;;21.30;19.10;;;;;;;16.28;91.68;97498.89;106036;1284;286929;-76
2022/07/02 11:09:50;;;;;;;20.60;18.40;;;;;;;16.27;92.02;97503.67;106207;1284;38071;-76
2022/07/02 11:12:42;;;;;;;20.80;18.60;;;;;;;16.22;92.10;97508.70;106139;1284;40025;-79
2022/07/02 11:15:22;;;;;;;22.30;18.40;;;;;;;16.23;92.44;97509.69;106415;1284;32431;-75
2022/07/02 11:17:55;;;;;;;21.80;19.20;;;;;;;16.23;92.49;97508.14;106322;1284;32161;-74
2022/07/02 11:20:30;;;;;;;20.90;18.70;;;;;;;16.22;92.60;97504.25;106455;1284;34788;-76
2022/07/02 11:23:02;;;;;;;21.80;19.50;;;;;;;16.26;92.69;97505.15;106460;1284;57353;-77
2022/07/02 11:25:36;;;;;;;20.80;17.50;;;;;;;16.28;92.56;97503.29;106346;1284;36459;-77
2022/07/02 11:28:09;;;;;;;20.80;18.60;;;;;;;16.26;92.67;97509.37;106780;1284;51861;-80
2022/07/02 11:30:40;;;;;;;22.30;17.70;;;;;;;16.27;92.76;97503.78;103251;1284;2136594;-82
2022/07/02 11:33:18;;;;;;;21.60;19.40;;;;;;;16.34;92.65;97501.59;105956;1284;223322;-81
2022/07/02 11:35:54;;;;;;;23.40;20.40;;;;;;;16.43;92.82;97494.84;106005;1284;119785;-77
2022/07/02 11:38:37;;;;;;;25.10;20.40;;;;;;;16.50;92.70;97491.42;106381;1284;133612;-83
2022/07/02 11:41:21;;;;;;;24.10;19.80;;;;;;;16.63;92.74;97488.51;106070;1284;167628;-80
2022/07/02 11:43:56;;;;;;;24.70;20.60;;;;;;;16.78;92.50;97490.52;106469;1284;162150;-77
2022/07/02 11:46:33;;;;;;;22.70;19.70;;;;;;;16.82;91.92;97491.08;106381;1284;102126;-82
2022/07/02 11:49:14;;;;;;;23.90;21.20;;;;;;;16.90;91.92;97490.45;106104;1284;107949;-77
2022/07/02 11:51:49;;;;;;;25.30;22.50;;;;;;;16.97;91.46;97487.57;106435;1284;126081;-79